Time;durP1;ratioP1;P1;durP2;ratioP2;P2;SDS_P1;SDS_P2;PMS_P1;PMS_P2;Temp;Humidity;BMP_temperature;BMP_pressure;BME280_temperature;BME280_humidity;BME280_pressure;Samples;Min_cycle;Max_cycle;Signal;HPM_P1;HPM_P2
2022/06/27 00:01:11;;;;;;;;;;;21.70;61.30;;;;;;5142722;27;19946;-50
2022/06/27 00:03:37;;;;;;;;;;;20.80;58.90;;;;;;5148275;27;19972;-48
2022/06/27 00:06:03;;;;;;;;;;;20.60;56.80;;;;;;5143704;27;19957;-45
2022/06/27 00:08:29;;;;;;;;;;;20.40;55.20;;;;;;5143753;27;19958;-47
2022/06/27 00:10:54;;;;;;;;;;;20.20;54.90;;;;;;5149515;27;19951;-47
2022/06/27 00:13:20;;;;;;;;;;;19.90;54.40;;;;;;5144097;27;19923;-47
2022/06/27 00:15:45;;;;;;;;;;;19.70;56.30;;;;;;5149551;27;19933;-46
2022/06/27 00:18:11;;;;;;;;;;;20.50;61.60;;;;;;5123474;27;19928;-50
2022/06/27 00:20:37;;;;;;;;;;;21.20;63.20;;;;;;5141752;27;20382;-47
2022/06/27 00:23:03;;;;;;;;;;;21.70;61.60;;;;;;5148600;27;19931;-47
2022/06/27 00:25:28;;;;;;;;;;;21.00;59.10;;;;;;5143553;27;19970;-47
2022/06/27 00:27:54;;;;;;;;;;;20.40;57.10;;;;;;5142831;27;19930;-46
2022/06/27 00:30:20;;;;;;;;;;;20.30;55.70;;;;;;5149494;27;19941;-46
2022/06/27 00:32:48;;;;;;;;;;;20.10;54.80;;;;;;5143826;27;19952;-50
2022/06/27 00:35:13;;;;;;;;;;;19.90;54.40;;;;;;5149033;27;19927;-46
2022/06/27 00:37:39;;;;;;;;;;;20.30;59.90;;;;;;5142574;27;19927;-46
2022/06/27 00:40:06;;;;;;;;;;;21.10;62.60;;;;;;5106814;27;19927;-46
2022/06/27 00:42:32;;;;;;;;;;;21.80;62.40;;;;;;5148728;27;19927;-50
2022/06/27 00:44:58;;;;;;;;;;;21.10;59.40;;;;;;5143149;27;19970;-47
2022/06/27 00:47:24;;;;;;;;;;;20.70;57.20;;;;;;5143556;27;20153;-47
2022/06/27 00:49:49;;;;;;;;;;;20.30;56.00;;;;;;5148890;27;19927;-44
2022/06/27 00:52:15;;;;;;;;;;;20.10;55.10;;;;;;5143258;27;19930;-46
2022/06/27 00:54:42;;;;;;;;;;;19.70;54.70;;;;;;5148516;27;19927;-50
2022/06/27 00:57:08;;;;;;;;;;;20.10;58.10;;;;;;5141836;27;20278;-48
2022/06/27 00:59:34;;;;;;;;;;;20.80;63.10;;;;;;5142399;27;19971;-46
2022/06/27 01:02:01;;;;;;;;;;;21.40;63.40;;;;;;5148367;27;19923;-46
2022/06/27 01:04:28;;;;;;;;;;;21.50;61.50;;;;;;5142850;27;19923;-45
2022/06/27 01:06:53;;;;;;;;;;;20.60;59.00;;;;;;5142932;27;19933;-47
2022/06/27 01:09:19;;;;;;;;;;;20.30;56.80;;;;;;5148680;27;19923;-47
2022/06/27 01:11:45;;;;;;;;;;;20.00;55.70;;;;;;5142812;27;19975;-46
2022/06/27 01:14:11;;;;;;;;;;;19.90;55.00;;;;;;5143642;27;19927;-56
2022/06/27 01:16:38;;;;;;;;;;;20.00;57.10;;;;;;5145507;27;20382;-51
2022/06/27 01:19:04;;;;;;;;;;;20.60;62.60;;;;;;5142552;27;19927;-48
2022/06/27 01:21:29;;;;;;;;;;;21.30;63.90;;;;;;5129341;27;20433;-48
2022/06/27 01:23:55;;;;;;;;;;;21.60;61.60;;;;;;5124218;27;19989;-48
2022/06/27 01:26:22;;;;;;;;;;;20.80;59.30;;;;;;5124203;27;19923;-45
2022/06/27 01:28:48;;;;;;;;;;;20.40;57.60;;;;;;5148385;27;20347;-45
2022/06/27 01:31:14;;;;;;;;;;;20.10;55.80;;;;;;5142332;27;19933;-47
2022/06/27 01:33:40;;;;;;;;;;;20.00;54.80;;;;;;5140632;27;20410;-47
2022/06/27 01:38:50;;;;;;;;;;;20.30;60.40;;;;;;5141948;27;20014;-46
2022/06/27 01:41:16;;;;;;;;;;;21.00;64.10;;;;;;5144428;27;20301;-56
2022/06/27 01:43:42;;;;;;;;;;;21.70;63.80;;;;;;5145809;27;20889;-46
2022/06/27 01:46:08;;;;;;;;;;;21.20;60.60;;;;;;5142302;27;19950;-48
2022/06/27 01:48:34;;;;;;;;;;;20.60;58.10;;;;;;5147671;27;19923;-47
2022/06/27 01:51:00;;;;;;;;;;;20.10;56.90;;;;;;5140842;27;19927;-45
2022/06/27 01:53:26;;;;;;;;;;;20.10;55.40;;;;;;5140724;27;19944;-47
2022/06/27 01:55:52;;;;;;;;;;;19.90;54.60;;;;;;5147128;27;19930;-46
2022/06/27 01:58:18;;;;;;;;;;;20.10;58.60;;;;;;5141717;27;20363;-45
2022/06/27 02:00:43;;;;;;;;;;;20.70;63.70;;;;;;5142090;27;19931;-52
2022/06/27 02:03:09;;;;;;;;;;;21.30;64.70;;;;;;5147635;27;19923;-48
2022/06/27 02:05:35;;;;;;;;;;;21.70;62.80;;;;;;5142114;27;19931;-48
2022/06/27 02:08:00;;;;;;;;;;;20.80;59.70;;;;;;5128471;27;19927;-45
2022/06/27 02:10:26;;;;;;;;;;;20.50;57.20;;;;;;5140126;27;19924;-48
2022/06/27 02:12:52;;;;;;;;;;;20.10;56.10;;;;;;5141221;27;20378;-46
2022/06/27 02:15:18;;;;;;;;;;;20.00;55.20;;;;;;5128796;27;20430;-46
2022/06/27 02:17:44;;;;;;;;;;;19.80;55.80;;;;;;5141931;27;20529;-47
2022/06/27 02:20:09;;;;;;;;;;;20.40;62.10;;;;;;5142141;27;20391;-46
2022/06/27 02:22:35;;;;;;;;;;;21.10;64.50;;;;;;5147538;27;19935;-44
2022/06/27 02:25:01;;;;;;;;;;;21.70;63.60;;;;;;5123358;27;20258;-45
2022/06/27 02:27:27;;;;;;;;;;;20.90;60.50;;;;;;5146201;27;19927;-48
2022/06/27 02:29:53;;;;;;;;;;;20.50;57.90;;;;;;5140243;27;20017;-47
2022/06/27 02:32:19;;;;;;;;;;;20.20;56.60;;;;;;5141237;27;19930;-48
2022/06/27 02:34:45;;;;;;;;;;;19.90;55.50;;;;;;5146908;27;19953;-48
2022/06/27 02:37:10;;;;;;;;;;;19.80;55.10;;;;;;5141995;27;20386;-48
2022/06/27 02:39:36;;;;;;;;;;;20.30;61.00;;;;;;5141953;27;20283;-51
2022/06/27 02:42:02;;;;;;;;;;;20.90;64.40;;;;;;5128891;27;19924;-48
2022/06/27 02:44:28;;;;;;;;;;;21.60;64.40;;;;;;5121925;27;19924;-45
2022/06/27 02:46:54;;;;;;;;;;;21.10;61.10;;;;;;5126718;27;19923;-46
2022/06/27 02:49:20;;;;;;;;;;;20.60;58.70;;;;;;5140734;27;19923;-46
2022/06/27 02:51:51;;;;;;;;;;;20.20;56.80;;;;;;5124364;27;20401;-46
2022/06/27 02:54:21;;;;;;;;;;;20.00;55.70;;;;;;5150757;27;19934;-45
2022/06/27 02:56:51;;;;;;;;;;;19.70;55.30;;;;;;5145702;27;19935;-46
2022/06/27 02:59:17;;;;;;;;;;;20.20;60.20;;;;;;5145946;27;20063;-46
2022/06/27 03:01:43;;;;;;;;;;;20.80;64.50;;;;;;5151150;27;19923;-49
2022/06/27 03:04:09;;;;;;;;;;;21.40;64.80;;;;;;5144648;27;20010;-47
2022/06/27 03:06:35;;;;;;;;;;;21.40;61.50;;;;;;5124764;27;19931;-49
2022/06/27 03:09:01;;;;;;;;;;;20.70;59.20;;;;;;5150191;27;20419;-48
2022/06/27 03:11:26;;;;;;;;;;;20.30;57.20;;;;;;5144917;27;19945;-48
2022/06/27 03:13:53;;;;;;;;;;;19.90;56.30;;;;;;5150706;27;20359;-46
2022/06/27 03:16:19;;;;;;;;;;;19.80;55.00;;;;;;5145101;27;19967;-46
2022/06/27 03:18:45;;;;;;;;;;;19.90;57.00;;;;;;5145644;27;19923;-45
2022/06/27 03:21:11;;;;;;;;;;;20.50;63.00;;;;;;5150599;27;19923;-46
2022/06/27 03:23:40;;;;;;;;;;;21.20;65.00;;;;;;5143081;27;19927;-49
2022/06/27 03:26:06;;;;;;;;;;;21.60;63.30;;;;;;5143967;27;20140;-47
2022/06/27 03:28:31;;;;;;;;;;;20.80;60.30;;;;;;5150141;27;20344;-48
2022/06/27 03:30:57;;;;;;;;;;;20.30;58.00;;;;;;5144762;27;19934;-45
2022/06/27 03:33:23;;;;;;;;;;;20.00;56.70;;;;;;5150356;27;19931;-51
2022/06/27 03:35:49;;;;;;;;;;;19.90;55.40;;;;;;5145531;27;19923;-45
2022/06/27 03:38:15;;;;;;;;;;;19.90;54.60;;;;;;5144881;27;20327;-45
2022/06/27 03:40:41;;;;;;;;;;;19.70;56.30;;;;;;5149335;27;19923;-47
2022/06/27 03:43:06;;;;;;;;;;;20.50;61.70;;;;;;5142950;27;19927;-46
2022/06/27 03:45:32;;;;;;;;;;;21.20;64.20;;;;;;5144282;27;19927;-48
2022/06/27 03:47:59;;;;;;;;;;;21.70;64.20;;;;;;5149618;27;19988;-45
2022/06/27 03:50:24;;;;;;;;;;;21.10;60.90;;;;;;5126036;27;19931;-46
2022/06/27 03:52:50;;;;;;;;;;;20.40;58.30;;;;;;5147960;27;20411;-56
2022/06/27 03:55:16;;;;;;;;;;;20.20;56.60;;;;;;5147435;27;20374;-47
2022/06/27 03:57:46;;;;;;;;;;;19.90;55.80;;;;;;5125874;27;19923;-46
2022/06/27 04:00:12;;;;;;;;;;;19.80;55.10;;;;;;5148222;27;19971;-50
2022/06/27 04:02:38;;;;;;;;;;;20.20;59.80;;;;;;5141758;27;19923;-48
2022/06/27 04:05:04;;;;;;;;;;;20.80;64.20;;;;;;5144223;27;19930;-47
2022/06/27 04:07:30;;;;;;;;;;;21.40;64.90;;;;;;5149691;27;19923;-50
2022/06/27 04:09:56;;;;;;;;;;;21.40;62.10;;;;;;5144614;27;19930;-45
2022/06/27 04:12:22;;;;;;;;;;;20.60;59.10;;;;;;5144247;27;20343;-46
2022/06/27 04:14:47;;;;;;;;;;;20.30;56.90;;;;;;5149467;27;19987;-45
2022/06/27 04:17:13;;;;;;;;;;;20.00;56.00;;;;;;5143749;27;20116;-46
2022/06/27 04:19:39;;;;;;;;;;;20.00;54.80;;;;;;5147401;27;19934;-47
2022/06/27 04:22:05;;;;;;;;;;;19.80;55.00;;;;;;5143438;27;19923;-48
2022/06/27 04:24:30;;;;;;;;;;;20.40;61.90;;;;;;5143809;27;19966;-48
2022/06/27 04:26:57;;;;;;;;;;;21.00;64.90;;;;;;5149249;27;19923;-48
2022/06/27 04:29:23;;;;;;;;;;;21.70;64.30;;;;;;5143896;27;19930;-46
2022/06/27 04:31:49;;;;;;;;;;;21.00;61.30;;;;;;5143743;27;20281;-44
2022/06/27 04:34:15;;;;;;;;;;;20.50;58.80;;;;;;5149153;27;20373;-44
2022/06/27 04:36:41;;;;;;;;;;;20.10;56.90;;;;;;5142264;27;19927;-46
2022/06/27 04:39:08;;;;;;;;;;;20.10;55.40;;;;;;5147859;27;19975;-46
2022/06/27 04:41:33;;;;;;;;;;;19.80;55.20;;;;;;5143200;27;19923;-48
2022/06/27 04:43:59;;;;;;;;;;;20.30;61.30;;;;;;5143402;27;19975;-49
2022/06/27 04:46:25;;;;;;;;;;;21.00;64.70;;;;;;5149241;27;19923;-49
2022/06/27 04:48:51;;;;;;;;;;;21.60;64.70;;;;;;5143684;27;19923;-45
2022/06/27 04:51:18;;;;;;;;;;;21.30;61.40;;;;;;5143348;27;19930;-46
2022/06/27 04:53:44;;;;;;;;;;;20.70;59.00;;;;;;5148576;27;19927;-46
2022/06/27 04:56:11;;;;;;;;;;;20.40;56.90;;;;;;5140958;27;19934;-51
2022/06/27 04:58:37;;;;;;;;;;;20.00;55.90;;;;;;5146394;27;19929;-57
2022/06/27 05:01:03;;;;;;;;;;;19.90;54.90;;;;;;5144683;27;19923;-45
2022/06/27 05:03:29;;;;;;;;;;;19.90;54.60;;;;;;5142941;27;19930;-45
2022/06/27 05:05:55;;;;;;;;;;;19.70;55.80;;;;;;5148525;27;19962;-47
2022/06/27 05:08:21;;;;;;;;;;;20.50;61.40;;;;;;5142914;27;19934;-47
2022/06/27 05:10:47;;;;;;;;;;;21.10;64.10;;;;;;5142882;27;19923;-47
2022/06/27 05:13:13;;;;;;;;;;;21.80;64.10;;;;;;5146736;27;19930;-49
2022/06/27 05:15:39;;;;;;;;;;;21.00;60.20;;;;;;5141834;27;19923;-48
2022/06/27 05:18:05;;;;;;;;;;;20.30;58.70;;;;;;5143785;27;19964;-53
2022/06/27 05:20:30;;;;;;;;;;;20.10;56.70;;;;;;5146769;27;19923;-48
2022/06/27 05:22:57;;;;;;;;;;;19.90;56.00;;;;;;5142865;27;19927;-46
2022/06/27 05:25:22;;;;;;;;;;;19.80;55.10;;;;;;5148054;27;19931;-47
2022/06/27 05:27:48;;;;;;;;;;;20.00;58.50;;;;;;5142616;27;20017;-53
2022/06/27 05:30:15;;;;;;;;;;;20.80;63.60;;;;;;5142897;27;19923;-49
2022/06/27 05:32:41;;;;;;;;;;;21.40;64.30;;;;;;5145959;27;20059;-48
2022/06/27 05:35:08;;;;;;;;;;;21.60;62.30;;;;;;5141773;27;19923;-48
2022/06/27 05:37:38;;;;;;;;;;;20.70;59.80;;;;;;5122880;27;19923;-46
2022/06/27 05:40:07;;;;;;;;;;;20.40;57.60;;;;;;5147878;27;19971;-45
2022/06/27 05:42:34;;;;;;;;;;;20.10;56.60;;;;;;5142386;27;19927;-45
2022/06/27 05:45:01;;;;;;;;;;;20.00;55.50;;;;;;5148235;27;19967;-45
2022/06/27 05:47:27;;;;;;;;;;;19.80;55.20;;;;;;5142585;27;20001;-45
2022/06/27 05:49:54;;;;;;;;;;;20.50;61.60;;;;;;5141096;27;19933;-46
2022/06/27 05:52:20;;;;;;;;;;;21.10;64.60;;;;;;5146232;27;19923;-47
2022/06/27 05:54:46;;;;;;;;;;;21.70;63.10;;;;;;5141925;27;19930;-45
2022/06/27 05:57:15;;;;;;;;;;;21.00;60.20;;;;;;5137804;27;19971;-47
2022/06/27 05:59:41;;;;;;;;;;;20.50;58.10;;;;;;5147870;27;20374;-46
2022/06/27 06:02:07;;;;;;;;;;;20.40;56.60;;;;;;5142034;27;19935;-46
2022/06/27 06:04:33;;;;;;;;;;;20.10;56.10;;;;;;5143265;27;20022;-54
2022/06/27 06:06:59;;;;;;;;;;;19.90;55.00;;;;;;5147187;27;20389;-46
2022/06/27 06:09:25;;;;;;;;;;;19.80;54.70;;;;;;5139547;27;19933;-46
2022/06/27 06:11:51;;;;;;;;;;;20.50;60.90;;;;;;5146598;27;19927;-48
2022/06/27 06:14:19;;;;;;;;;;;21.10;63.90;;;;;;5141527;27;20018;-45
2022/06/27 06:16:45;;;;;;;;;;;21.70;64.20;;;;;;5141952;27;20006;-46
2022/06/27 06:19:11;;;;;;;;;;;21.00;60.30;;;;;;5147332;27;20366;-48
2022/06/27 06:21:38;;;;;;;;;;;20.50;58.30;;;;;;5141992;27;20017;-46
2022/06/27 06:24:04;;;;;;;;;;;20.20;56.90;;;;;;5141702;27;19926;-46
2022/06/27 06:26:30;;;;;;;;;;;20.10;55.20;;;;;;5129976;27;19927;-48
2022/06/27 06:29:01;;;;;;;;;;;19.80;55.30;;;;;;5144607;27;20393;-49
2022/06/27 06:31:27;;;;;;;;;;;20.20;59.80;;;;;;5151093;27;20306;-47
2022/06/27 06:33:53;;;;;;;;;;;20.80;64.20;;;;;;5145820;27;20022;-45
2022/06/27 06:36:21;;;;;;;;;;;21.50;64.50;;;;;;5146398;27;20018;-49
2022/06/27 06:38:47;;;;;;;;;;;21.40;61.80;;;;;;5133443;27;19945;-46
2022/06/27 06:41:13;;;;;;;;;;;20.60;59.30;;;;;;5146003;27;19924;-44
2022/06/27 06:43:38;;;;;;;;;;;20.20;57.50;;;;;;5145625;27;19926;-48
2022/06/27 06:46:05;;;;;;;;;;;20.10;56.10;;;;;;5149059;27;19976;-46
2022/06/27 06:48:32;;;;;;;;;;;19.90;55.70;;;;;;5145110;27;19927;-49
2022/06/27 06:50:58;;;;;;;;;;;19.70;55.10;;;;;;5147595;27;19923;-54
2022/06/27 06:53:23;;;;;;;;;;;20.30;62.10;;;;;;5149728;27;20378;-48
2022/06/27 06:55:50;;;;;;;;;;;21.00;64.50;;;;;;5145559;27;19923;-46
2022/06/27 06:58:17;;;;;;;;;;;21.70;64.60;;;;;;5151479;27;19949;-46
2022/06/27 07:00:43;;;;;;;;;;;21.00;60.90;;;;;;5145474;27;20681;-45
2022/06/27 07:03:10;;;;;;;;;;;20.50;58.40;;;;;;5144249;27;19923;-50
2022/06/27 07:05:36;;;;;;;;;;;20.30;56.60;;;;;;5149305;27;19933;-45
2022/06/27 07:08:03;;;;;;;;;;;19.90;55.90;;;;;;5144874;27;19923;-46
2022/06/27 07:10:28;;;;;;;;;;;19.90;55.00;;;;;;5145041;27;20053;-46
2022/06/27 07:12:54;;;;;;;;;;;20.30;61.30;;;;;;5150960;27;20345;-48
2022/06/27 07:15:20;;;;;;;;;;;21.00;64.40;;;;;;5145344;27;19923;-50
2022/06/27 07:17:46;;;;;;;;;;;21.70;64.10;;;;;;5150835;27;20316;-51
2022/06/27 07:20:13;;;;;;;;;;;21.30;61.10;;;;;;5145033;27;20019;-46
2022/06/27 07:22:40;;;;;;;;;;;20.70;58.60;;;;;;5142878;27;19923;-49
2022/06/27 07:25:06;;;;;;;;;;;20.40;56.80;;;;;;5149695;27;19931;-47
2022/06/27 07:27:34;;;;;;;;;;;20.20;55.60;;;;;;5144937;27;19923;-46
2022/06/27 07:30:03;;;;;;;;;;;20.00;54.70;;;;;;5144728;27;19923;-46
2022/06/27 07:32:29;;;;;;;;;;;20.00;54.40;;;;;;5150461;27;19945;-46
2022/06/27 07:34:57;;;;;;;;;;;19.80;54.60;;;;;;5145228;27;19929;-48
2022/06/27 07:37:23;;;;;;;;;;;19.90;53.90;;;;;;5147218;27;19927;-55
2022/06/27 07:39:49;;;;;;;;;;;20.00;54.80;;;;;;5146627;27;19930;-48
2022/06/27 07:42:15;;;;;;;;;;;20.50;61.50;;;;;;5142963;27;19923;-48
2022/06/27 07:44:41;;;;;;;;;;;21.20;63.80;;;;;;5149922;27;19923;-46
2022/06/27 07:47:07;;;;;;;;;;;21.80;63.80;;;;;;5122007;27;20267;-49
2022/06/27 07:49:33;;;;;;;;;;;21.30;60.60;;;;;;5144870;27;20026;-45
2022/06/27 07:51:59;;;;;;;;;;;20.70;58.50;;;;;;5150106;27;19923;-46
2022/06/27 07:54:25;;;;;;;;;;;20.30;56.90;;;;;;5144756;27;19927;-46
2022/06/27 07:56:51;;;;;;;;;;;20.30;55.60;;;;;;5144633;27;20009;-51
2022/06/27 07:59:17;;;;;;;;;;;20.20;55.10;;;;;;5147969;27;20305;-52
2022/06/27 08:01:43;;;;;;;;;;;19.80;55.20;;;;;;5143467;27;19923;-48
2022/06/27 08:04:11;;;;;;;;;;;20.50;61.00;;;;;;5149417;27;19929;-50
2022/06/27 08:06:36;;;;;;;;;;;21.10;64.00;;;;;;5144092;27;19978;-47
2022/06/27 08:09:06;;;;;;;;;;;21.80;63.50;;;;;;5144178;27;20409;-47
2022/06/27 08:11:35;;;;;;;;;;;21.10;60.20;;;;;;5130216;27;19931;-46
2022/06/27 08:14:08;;;;;;;;;;;20.60;57.80;;;;;;5143941;27;19923;-47
2022/06/27 08:16:34;;;;;;;;;;;20.30;56.50;;;;;;5124715;27;20338;-49
2022/06/27 08:19:00;;;;;;;;;;;20.00;55.80;;;;;;5147812;27;19945;-47
2022/06/27 08:21:27;;;;;;;;;;;20.00;54.90;;;;;;5143271;27;19923;-47
2022/06/27 08:23:53;;;;;;;;;;;19.80;56.00;;;;;;5145411;27;19927;-57
2022/06/27 08:26:20;;;;;;;;;;;20.60;61.70;;;;;;5148363;27;19931;-51
2022/06/27 08:28:47;;;;;;;;;;;21.30;63.70;;;;;;5143730;27;19923;-46
2022/06/27 08:31:14;;;;;;;;;;;21.60;62.30;;;;;;5149371;27;19923;-47
2022/06/27 08:33:40;;;;;;;;;;;20.70;59.40;;;;;;5142455;27;19929;-46
2022/06/27 08:36:06;;;;;;;;;;;20.50;57.50;;;;;;5141347;27;20290;-45
2022/06/27 08:38:39;;;;;;;;;;;20.40;55.50;;;;;;5148246;27;19923;-46
2022/06/27 08:41:06;;;;;;;;;;;20.10;55.30;;;;;;5142697;27;21221;-45
2022/06/27 08:43:33;;;;;;;;;;;19.90;54.80;;;;;;5143309;27;20666;-48
2022/06/27 08:45:59;;;;;;;;;;;20.00;55.90;;;;;;5149080;27;20017;-49
2022/06/27 08:48:28;;;;;;;;;;;20.70;61.70;;;;;;5142797;27;19930;-48
2022/06/27 08:50:56;;;;;;;;;;;21.30;63.30;;;;;;5147000;27;20433;-57
2022/06/27 08:53:25;;;;;;;;;;;21.60;61.50;;;;;;5126256;27;20046;-52
2022/06/27 08:55:50;;;;;;;;;;;20.90;58.90;;;;;;5141665;27;20384;-45
2022/06/27 08:58:16;;;;;;;;;;;20.50;57.10;;;;;;5148144;27;19923;-48
2022/06/27 09:00:45;;;;;;;;;;;20.30;56.10;;;;;;5142965;27;19930;-47
2022/06/27 09:03:20;;;;;;;;;;;20.10;55.30;;;;;;5143372;27;19927;-47
2022/06/27 09:05:53;;;;;;;;;;;19.90;54.40;;;;;;5148940;27;19923;-45
2022/06/27 09:08:20;;;;;;;;;;;20.50;61.30;;;;;;5140475;27;20311;-46
2022/06/27 09:10:46;;;;;;;;;;;21.20;63.60;;;;;;5143106;27;20136;-51
2022/06/27 09:13:16;;;;;;;;;;;21.60;62.10;;;;;;5146205;27;19929;-49
2022/06/27 09:15:46;;;;;;;;;;;20.90;59.10;;;;;;5142035;27;19980;-45
2022/06/27 09:18:13;;;;;;;;;;;20.50;57.30;;;;;;5142717;27;19923;-44
2022/06/27 09:20:52;;;;;;;;;;;20.20;56.20;;;;;;5148268;27;19923;-45
2022/06/27 09:23:40;;;;;;;;;;;20.10;55.20;;;;;;5142359;27;20264;-47
2022/06/27 09:26:14;;;;;;;;;;;19.70;55.20;;;;;;5121857;27;20606;-49
2022/06/27 09:29:00;;;;;;;;;;;20.10;58.10;;;;;;5147799;27;19939;-48
2022/06/27 09:31:30;;;;;;;;;;;21.00;62.40;;;;;;5140392;27;19930;-53
2022/06/27 09:34:08;;;;;;;;;;;21.60;63.50;;;;;;5142104;27;20164;-49
2022/06/27 09:36:34;;;;;;;;;;;21.30;60.60;;;;;;5147597;27;19927;-47
2022/06/27 09:39:01;;;;;;;;;;;20.70;58.50;;;;;;5142294;27;19923;-45
2022/06/27 09:41:29;;;;;;;;;;;20.30;56.90;;;;;;5142359;27;20416;-47
2022/06/27 09:43:59;;;;;;;;;;;20.20;55.70;;;;;;5147903;27;19954;-46
2022/06/27 09:46:25;;;;;;;;;;;19.80;55.40;;;;;;5142286;27;20016;-46
2022/06/27 09:48:50;;;;;;;;;;;19.80;54.50;;;;;;5109109;27;19931;-46
2022/06/27 09:51:17;;;;;;;;;;;20.30;60.70;;;;;;5140854;27;20030;-48
2022/06/27 09:53:50;;;;;;;;;;;21.00;63.70;;;;;;5141667;27;19934;-48
2022/06/27 09:56:17;;;;;;;;;;;21.70;63.70;;;;;;5147459;27;19927;-47
2022/06/27 09:58:44;;;;;;;;;;;21.10;60.30;;;;;;5142283;27;19923;-45
2022/06/27 10:01:10;;;;;;;;;;;20.50;58.40;;;;;;5141947;27;19923;-48
2022/06/27 10:03:36;;;;;;;;;;;20.30;56.50;;;;;;5147595;27;20013;-46
2022/06/27 10:06:03;;;;;;;;;;;20.20;55.70;;;;;;5141918;27;19927;-49
2022/06/27 10:08:33;;;;;;;;;;;20.00;55.30;;;;;;5139872;27;20319;-49
2022/06/27 10:11:08;;;;;;;;;;;19.70;54.90;;;;;;5147007;27;19927;-47
2022/06/27 10:13:34;;;;;;;;;;;20.40;61.60;;;;;;5141681;27;19932;-46
2022/06/27 10:16:06;;;;;;;;;;;21.20;63.90;;;;;;5147293;27;19974;-53
2022/06/27 10:18:55;;;;;;;;;;;21.80;63.50;;;;;;5145403;27;19927;-46
2022/06/27 10:21:28;;;;;;;;;;;21.20;59.80;;;;;;5128422;27;19927;-47
2022/06/27 10:24:28;;;;;;;;;;;20.40;58.00;;;;;;5142965;27;19927;-53
2022/06/27 10:26:55;;;;;;;;;;;20.30;56.80;;;;;;5089594;27;20004;-45
2022/06/27 10:29:30;;;;;;;;;;;20.10;55.40;;;;;;5141204;27;19923;-45
2022/06/27 10:31:56;;;;;;;;;;;20.00;54.40;;;;;;5141112;27;20178;-46
2022/06/27 10:34:37;;;;;;;;;;;19.70;54.90;;;;;;5147271;27;19963;-48
2022/06/27 10:37:24;;;;;;;;;;;20.30;59.60;;;;;;5141807;27;19989;-48
2022/06/27 10:39:53;;;;;;;;;;;21.00;63.50;;;;;;5141977;27;19927;-46
2022/06/27 10:42:38;;;;;;;;;;;21.70;63.60;;;;;;5146872;27;19979;-46
2022/06/27 10:45:19;;;;;;;;;;;21.30;60.40;;;;;;5139656;27;20150;-47
2022/06/27 10:47:45;;;;;;;;;;;20.70;57.80;;;;;;5140956;27;19923;-46
2022/06/27 10:50:11;;;;;;;;;;;20.60;56.00;;;;;;5126463;27;20119;-48
2022/06/27 10:52:37;;;;;;;;;;;20.20;55.30;;;;;;5141322;27;19923;-47
2022/06/27 10:55:19;;;;;;;;;;;20.10;54.80;;;;;;5123009;27;20224;-46
2022/06/27 10:57:45;;;;;;;;;;;19.90;54.10;;;;;;5144591;27;19923;-49
2022/06/27 11:00:11;;;;;;;;;;;20.10;57.70;;;;;;5141625;27;19930;-47
2022/06/27 11:02:36;;;;;;;;;;;20.80;62.20;;;;;;5140997;27;20230;-58
2022/06/27 11:05:02;;;;;;;;;;;21.40;63.40;;;;;;5126260;27;19923;-47
2022/06/27 11:07:28;;;;;;;;;;;21.60;61.60;;;;;;5141089;27;19930;-45
2022/06/27 11:09:54;;;;;;;;;;;20.90;58.70;;;;;;5128051;27;19927;-49
2022/06/27 11:12:23;;;;;;;;;;;20.70;57.10;;;;;;5143264;27;19981;-49
2022/06/27 11:14:55;;;;;;;;;;;20.30;55.90;;;;;;5145326;27;19927;-46
2022/06/27 11:17:25;;;;;;;;;;;20.00;55.50;;;;;;5150596;27;20010;-45
2022/06/27 11:20:06;;;;;;;;;;;20.00;54.40;;;;;;5144741;27;20072;-48
2022/06/27 11:22:32;;;;;;;;;;;20.20;59.70;;;;;;5122058;27;19972;-48
2022/06/27 11:24:58;;;;;;;;;;;20.90;63.60;;;;;;5147953;27;19931;-49
2022/06/27 11:27:23;;;;;;;;;;;21.60;63.40;;;;;;5144671;27;19923;-50
2022/06/27 11:32:34;;;;;;;;;;;20.90;58.40;;;;;;5150262;27;19967;-50
2022/06/27 11:35:00;;;;;;;;;;;20.40;57.20;;;;;;5126558;27;20279;-52
2022/06/27 11:37:27;;;;;;;;;;;20.30;55.60;;;;;;5127873;27;19927;-53
2022/06/27 11:39:58;;;;;;;;;;;20.20;54.70;;;;;;5147651;27;20022;-45
2022/06/27 11:42:27;;;;;;;;;;;19.90;54.60;;;;;;5143707;27;19927;-48
2022/06/27 11:45:07;;;;;;;;;;;20.10;57.80;;;;;;5150007;27;19923;-48
2022/06/27 11:47:34;;;;;;;;;;;21.00;61.80;;;;;;5147400;27;19923;-48
2022/06/27 11:50:03;;;;;;;;;;;21.60;62.80;;;;;;5144764;27;19937;-45
2022/06/27 11:52:35;;;;;;;;;;;21.20;59.90;;;;;;5150146;27;20444;-46
2022/06/27 11:55:08;;;;;;;;;;;20.80;57.70;;;;;;5140568;27;19923;-46
2022/06/27 11:57:34;;;;;;;;;;;20.30;56.50;;;;;;5142999;27;19923;-48
2022/06/27 12:00:01;;;;;;;;;;;20.20;55.30;;;;;;5148561;27;19930;-46
2022/06/27 12:02:37;;;;;;;;;;;20.00;54.80;;;;;;5143814;27;19937;-45
2022/06/27 12:05:06;;;;;;;;;;;19.90;54.60;;;;;;5144159;27;19971;-46
2022/06/27 12:07:31;;;;;;;;;;;20.20;59.20;;;;;;5149778;27;19923;-50
2022/06/27 12:09:57;;;;;;;;;;;20.90;62.90;;;;;;5144169;27;20301;-46
2022/06/27 12:12:25;;;;;;;;;;;21.50;63.00;;;;;;5143941;27;19976;-45
2022/06/27 12:14:51;;;;;;;;;;;21.50;60.50;;;;;;5149291;27;19929;-45
2022/06/27 12:17:17;;;;;;;;;;;20.90;58.10;;;;;;5142204;27;20404;-48
2022/06/27 12:19:43;;;;;;;;;;;20.40;56.80;;;;;;5130239;27;19931;-48
2022/06/27 12:22:09;;;;;;;;;;;20.20;55.90;;;;;;5143176;27;20327;-47
2022/06/27 12:24:35;;;;;;;;;;;20.10;54.70;;;;;;5142647;27;20014;-46
2022/06/27 12:27:01;;;;;;;;;;;20.00;53.90;;;;;;5149134;27;19933;-46
2022/06/27 12:29:26;;;;;;;;;;;19.80;56.20;;;;;;5143687;27;19957;-48
2022/06/27 12:31:52;;;;;;;;;;;20.70;61.10;;;;;;5143803;27;19923;-48
2022/06/27 12:34:18;;;;;;;;;;;21.30;62.30;;;;;;5147730;27;20301;-47
2022/06/27 12:36:44;;;;;;;;;;;21.50;61.10;;;;;;5142534;27;20405;-47
2022/06/27 12:39:10;;;;;;;;;;;20.80;58.40;;;;;;5148770;27;19923;-46
2022/06/27 12:41:35;;;;;;;;;;;20.40;56.80;;;;;;5143250;27;19923;-46
2022/06/27 12:44:01;;;;;;;;;;;20.30;55.30;;;;;;5143351;27;19934;-46
2022/06/27 12:46:27;;;;;;;;;;;20.00;54.60;;;;;;5148895;27;19966;-46
2022/06/27 12:48:55;;;;;;;;;;;20.00;54.30;;;;;;5143336;27;20374;-48
2022/06/27 12:51:21;;;;;;;;;;;20.00;56.60;;;;;;5143141;27;19923;-51
2022/06/27 12:53:47;;;;;;;;;;;20.70;61.80;;;;;;5146473;27;19952;-50
2022/06/27 12:56:13;;;;;;;;;;;21.40;62.40;;;;;;5142466;27;19927;-46
2022/06/27 12:58:39;;;;;;;;;;;21.80;60.50;;;;;;5146341;27;19931;-55
2022/06/27 13:01:04;;;;;;;;;;;20.90;58.00;;;;;;5145201;27;19923;-48
2022/06/27 13:03:30;;;;;;;;;;;20.50;57.00;;;;;;5143255;27;20348;-45
2022/06/27 13:05:56;;;;;;;;;;;20.10;55.60;;;;;;5148745;27;19923;-45
2022/06/27 13:08:22;;;;;;;;;;;20.00;54.70;;;;;;5142894;27;20038;-46
2022/06/27 13:10:48;;;;;;;;;;;20.30;59.40;;;;;;5141712;27;20386;-47
2022/06/27 13:13:14;;;;;;;;;;;20.90;62.70;;;;;;5146740;27;19923;-50
2022/06/27 13:15:40;;;;;;;;;;;21.70;62.10;;;;;;5142524;27;20429;-46
2022/06/27 13:18:06;;;;;;;;;;;21.10;59.10;;;;;;5143789;27;19922;-51
2022/06/27 13:20:32;;;;;;;;;;;20.70;57.30;;;;;;5147771;27;19923;-45
2022/06/27 13:22:58;;;;;;;;;;;20.40;55.90;;;;;;5142683;27;19923;-46
2022/06/27 13:25:24;;;;;;;;;;;20.10;54.90;;;;;;5146161;27;20302;-45
2022/06/27 13:27:50;;;;;;;;;;;20.10;54.20;;;;;;5142551;27;20066;-47
2022/06/27 13:30:16;;;;;;;;;;;20.00;53.80;;;;;;5140739;27;19930;-54
2022/06/27 13:32:41;;;;;;;;;;;20.00;56.30;;;;;;5147333;27;19923;-49
2022/06/27 13:35:07;;;;;;;;;;;20.80;60.90;;;;;;5142006;27;19981;-49
2022/06/27 13:37:33;;;;;;;;;;;21.40;61.70;;;;;;5142221;27;20017;-46
2022/06/27 13:39:59;;;;;;;;;;;21.60;60.20;;;;;;5148173;27;19930;-46
2022/06/27 13:42:25;;;;;;;;;;;20.80;57.90;;;;;;5142614;27;19927;-48
2022/06/27 13:44:52;;;;;;;;;;;20.50;56.20;;;;;;5148006;27;19931;-50
2022/06/27 13:47:18;;;;;;;;;;;20.20;55.40;;;;;;5141276;27;19930;-46
2022/06/27 13:49:44;;;;;;;;;;;20.10;54.80;;;;;;5140802;27;20297;-47
2022/06/27 13:52:10;;;;;;;;;;;19.80;54.60;;;;;;5146927;27;21112;-48
2022/06/27 13:54:35;;;;;;;;;;;20.30;59.90;;;;;;5141653;27;19925;-47
2022/06/27 13:57:01;;;;;;;;;;;21.10;62.00;;;;;;5142119;27;20521;-47
2022/06/27 13:59:27;;;;;;;;;;;21.80;61.20;;;;;;5129326;27;19923;-46
2022/06/27 14:01:53;;;;;;;;;;;21.10;58.50;;;;;;5142130;27;19930;-45
2022/06/27 14:04:18;;;;;;;;;;;20.70;57.00;;;;;;5147467;27;20378;-45
2022/06/27 14:09:29;;;;;;;;;;;20.20;54.50;;;;;;5141251;27;19991;-49
2022/06/27 14:11:54;;;;;;;;;;;20.00;54.30;;;;;;5147388;27;19923;-48
2022/06/27 14:14:20;;;;;;;;;;;19.90;55.00;;;;;;5123363;27;19923;-47
2022/06/27 14:16:46;;;;;;;;;;;20.60;60.20;;;;;;5142040;27;20381;-48
2022/06/27 14:19:12;;;;;;;;;;;21.30;61.60;;;;;;5147335;27;19994;-46
2022/06/27 14:21:38;;;;;;;;;;;21.90;60.90;;;;;;5141794;27;20217;-50
2022/06/27 14:24:04;;;;;;;;;;;21.10;58.90;;;;;;5140952;27;20258;-51